Time;durP1;ratioP1;P1;durP2;ratioP2;P2;SDS_P1;SDS_P2;PMS_P1;PMS_P2;Temp;Humidity;BMP_temperature;BMP_pressure;BME280_temperature;BME280_humidity;BME280_pressure;Samples;Min_cycle;Max_cycle;Signal;HPM_P1;HPM_P2
2021/06/29 00:00:10;;;;;;;0.13;0.13;;;;;;;21.61;68.17;101391.66;5096663;28;20453;-88
2021/06/29 00:02:36;;;;;;;1.15;1.15;;;;;;;21.60;67.74;101389.94;5094900;28;20043;-89
2021/06/29 00:05:03;;;;;;;0.28;0.28;;;;;;;21.60;67.86;101390.78;5096534;28;20055;-86
2021/06/29 00:07:30;;;;;;;1.02;0.95;;;;;;;21.50;67.95;101386.84;5096931;28;20119;-87
2021/06/29 00:09:56;;;;;;;0.98;0.93;;;;;;;21.44;68.14;101389.91;5094906;28;20036;-86
2021/06/29 00:12:24;;;;;;;0.82;0.82;;;;;;;21.36;68.36;101381.38;5098605;28;20065;-88
2021/06/29 00:14:51;;;;;;;0.65;0.65;;;;;;;21.40;68.33;101378.44;5096471;28;20126;-87
2021/06/29 00:17:18;;;;;;;4.85;1.33;;;;;;;21.43;68.07;101371.97;5095113;28;20067;-88
2021/06/29 00:19:44;;;;;;;0.98;0.98;;;;;;;21.34;68.15;101368.00;5096361;28;20051;-88
2021/06/29 00:22:11;;;;;;;0.47;0.47;;;;;;;21.29;68.35;101370.94;5095177;28;20039;-88
2021/06/29 00:24:37;;;;;;;1.15;1.15;;;;;;;21.36;68.09;101366.09;5096243;28;20371;-88
2021/06/29 00:27:04;;;;;;;0.73;0.73;;;;;;;21.37;68.14;101367.84;5095918;28;20078;-86
2021/06/29 00:29:30;;;;;;;0.17;0.17;;;;;;;21.29;68.31;101368.25;5096729;28;20043;-89
2021/06/29 00:31:56;;;;;;;3.65;1.67;;;;;;;21.25;68.62;101366.69;5094694;28;20032;-89
2021/06/29 00:34:24;;;;;;;0.20;0.20;;;;;;;21.25;68.43;101369.38;5096040;28;20086;-88
2021/06/29 00:36:50;;;;;;;0.20;0.20;;;;;;;21.23;68.46;101384.75;5095280;28;20591;-87
2021/06/29 00:39:17;;;;;;;1.25;1.15;;;;;;;21.24;68.51;101375.72;5095791;28;20032;-87
2021/06/29 00:41:43;;;;;;;0.60;0.60;;;;;;;21.34;68.09;101374.25;5094616;28;20058;-87
2021/06/29 00:44:21;;;;;;;0.10;0.10;;;;;;;21.42;67.86;101372.94;5095748;28;20084;-89
2021/06/29 00:46:50;;;;;;;0.43;0.43;;;;;;;21.35;68.10;101364.34;5094222;28;20490;-88
2021/06/29 00:49:18;;;;;;;0.35;0.35;;;;;;;21.37;67.94;101373.22;5095784;28;20063;-86
2021/06/29 00:51:45;;;;;;;0.63;0.52;;;;;;;21.28;68.29;101365.66;5096388;28;20028;-86
2021/06/29 00:54:14;;;;;;;1.73;1.00;;;;;;;21.34;68.03;101362.59;5095480;28;20043;-88
2021/06/29 00:56:42;;;;;;;0.50;0.47;;;;;;;21.26;68.22;101363.03;5095754;28;20020;-88
2021/06/29 00:59:10;;;;;;;6.50;2.25;;;;;;;21.17;68.71;101350.06;5095172;28;20111;-88
2021/06/29 01:01:37;;;;;;;1.67;0.55;;;;;;;21.19;68.58;101340.09;5094215;28;20116;-88
2021/06/29 01:04:05;;;;;;;1.25;0.60;;;;;;;21.22;68.40;101339.94;5095884;28;20028;-89
2021/06/29 01:06:33;;;;;;;1.13;1.10;;;;;;;21.29;68.17;101333.22;5095062;28;20028;-88
2021/06/29 01:09:01;;;;;;;0.22;0.22;;;;;;;21.32;67.93;101327.66;5095242;28;20074;-88
2021/06/29 01:11:29;;;;;;;2.60;0.65;;;;;;;21.32;68.13;101333.06;5095415;28;20024;-90
2021/06/29 01:14:08;;;;;;;0.20;0.20;;;;;;;21.36;68.06;101330.16;5095662;28;20485;-88
2021/06/29 01:16:34;;;;;;;0.25;0.25;;;;;;;21.36;67.98;101332.84;5093945;28;20036;-89
2021/06/29 01:19:01;;;;;;;0.82;0.82;;;;;;;21.37;67.97;101329.22;5095337;28;20382;-87
2021/06/29 01:21:37;;;;;;;3.95;1.25;;;;;;;21.36;68.14;101333.75;5094325;28;20118;-88
2021/06/29 01:24:08;;;;;;;1.27;1.17;;;;;;;21.39;68.19;101338.09;5095223;28;20032;-89
2021/06/29 01:26:41;;;;;;;0.73;0.73;;;;;;;21.42;68.02;101332.50;5094986;28;20489;-89
2021/06/29 01:29:07;;;;;;;0.20;0.20;;;;;;;21.41;67.98;101322.66;5095373;28;20029;-88
2021/06/29 01:31:35;;;;;;;0.40;0.40;;;;;;;21.42;68.07;101327.09;5094334;28;20372;-86
2021/06/29 01:34:04;;;;;;;2.33;0.82;;;;;;;21.43;67.91;101331.56;5095121;28;20032;-87
2021/06/29 01:36:36;;;;;;;0.30;0.30;;;;;;;21.37;67.95;101329.22;5094406;28;20032;-88
2021/06/29 01:39:08;;;;;;;0.52;0.52;;;;;;;21.37;68.13;101329.22;5095159;28;20036;-89
2021/06/29 01:41:34;;;;;;;1.65;1.30;;;;;;;21.38;67.97;101325.56;5094078;28;20028;-89
2021/06/29 01:44:09;;;;;;;0.17;0.17;;;;;;;21.29;68.25;101326.97;5094929;28;20459;-88
2021/06/29 01:46:38;;;;;;;0.30;0.30;;;;;;;21.29;67.99;101325.13;5093762;28;20119;-88
2021/06/29 01:49:05;;;;;;;0.63;0.60;;;;;;;21.28;67.97;101325.22;5093571;28;20471;-89
2021/06/29 01:51:32;;;;;;;0.30;0.30;;;;;;;21.29;67.85;101335.91;5095118;28;20062;-88
2021/06/29 01:53:59;;;;;;;1.55;1.00;;;;;;;21.29;68.11;101333.22;5094375;28;20039;-89
2021/06/29 01:56:28;;;;;;;0.38;0.38;;;;;;;21.23;68.42;101321.94;5094033;28;20021;-88
2021/06/29 01:58:59;;;;;;;0.10;0.10;;;;;;;21.29;68.07;101306.25;5095233;28;20032;-88
2021/06/29 02:01:28;;;;;;;0.90;0.90;;;;;;;21.32;68.17;101306.09;5094697;28;20451;-88
2021/06/29 02:03:55;;;;;;;1.52;1.42;;;;;;;21.27;68.08;101302.81;5094303;28;20035;-89
2021/06/29 02:06:21;;;;;;;0.35;0.35;;;;;;;21.22;68.44;101296.81;5094561;28;20525;-87
2021/06/29 02:08:48;;;;;;;0.35;0.35;;;;;;;21.24;68.28;101289.50;5094884;28;20387;-88
2021/06/29 02:11:14;;;;;;;0.43;0.43;;;;;;;21.19;68.43;101288.03;5094329;28;20491;-88
2021/06/29 02:13:42;;;;;;;0.55;0.55;;;;;;;21.20;68.68;101285.25;5094848;28;20087;-88
2021/06/29 02:16:09;;;;;;;2.53;1.10;;;;;;;21.09;68.64;101288.56;5093864;28;20039;-89
2021/06/29 02:18:35;;;;;;;0.10;0.10;;;;;;;21.06;68.96;101294.13;5094238;28;20033;-87
2021/06/29 02:21:03;;;;;;;0.15;0.15;;;;;;;20.99;69.20;101288.19;5093306;28;20387;-88
2021/06/29 02:23:29;;;;;;;1.75;1.65;;;;;;;21.05;69.14;101292.38;5094501;28;20032;-88
2021/06/29 02:25:55;;;;;;;0.30;0.30;;;;;;;21.09;68.87;101276.91;5093050;28;20148;-88
2021/06/29 02:28:22;;;;;;;0.38;0.38;;;;;;;21.08;68.94;101270.63;5094675;28;20478;-88
2021/06/29 02:30:48;;;;;;;0.00;0.00;;;;;;;21.01;69.50;101267.44;5094483;28;20020;-86
2021/06/29 02:33:15;;;;;;;0.10;0.10;;;;;;;20.97;69.14;101257.81;5093965;28;20032;-88
2021/06/29 02:35:41;;;;;;;0.57;0.57;;;;;;;21.09;68.83;101268.84;5096455;28;20111;-88
2021/06/29 02:38:08;;;;;;;0.10;0.10;;;;;;;21.02;69.23;101268.31;5094729;28;20542;-88
2021/06/29 02:40:34;;;;;;;0.20;0.20;;;;;;;21.01;69.33;101264.75;5094621;28;20043;-88
2021/06/29 02:43:02;;;;;;;0.75;0.75;;;;;;;21.05;69.22;101259.16;5094054;28;20040;-87
2021/06/29 02:45:29;;;;;;;1.65;0.65;;;;;;;20.93;69.83;101258.06;5094354;28;20074;-87
2021/06/29 02:47:58;;;;;;;0.30;0.30;;;;;;;20.91;69.61;101258.16;5095369;28;20089;-88
2021/06/29 02:50:25;;;;;;;0.40;0.40;;;;;;;21.08;69.12;101265.25;5094400;28;20033;-87
2021/06/29 02:52:51;;;;;;;0.63;0.63;;;;;;;20.93;69.94;101261.63;5093749;28;20036;-87
2021/06/29 02:55:18;;;;;;;0.10;0.10;;;;;;;21.05;69.30;101264.56;5093464;28;20028;-87
2021/06/29 02:57:46;;;;;;;1.00;1.00;;;;;;;21.05;69.45;101259.16;5093839;28;20475;-87
2021/06/29 03:00:18;;;;;;;0.60;0.60;;;;;;;21.08;69.55;101256.31;5095883;28;20051;-87
2021/06/29 03:02:45;;;;;;;1.38;0.93;;;;;;;21.03;69.91;101258.41;5097491;28;20032;-89
2021/06/29 03:05:12;;;;;;;0.32;0.32;;;;;;;21.01;69.96;101264.75;5097502;28;20483;-88
2021/06/29 03:07:39;;;;;;;0.63;0.63;;;;;;;21.02;69.88;101254.84;5097523;28;20024;-89
2021/06/29 03:10:07;;;;;;;0.90;0.90;;;;;;;21.11;69.62;101262.41;5097679;28;20531;-86
2021/06/29 03:12:34;;;;;;;0.32;0.32;;;;;;;21.17;69.34;101255.78;5097092;28;20113;-89
2021/06/29 03:15:02;;;;;;;0.73;0.73;;;;;;;21.09;69.85;101258.91;5096729;28;20028;-88
2021/06/29 03:17:29;;;;;;;1.15;1.15;;;;;;;21.14;69.53;101258.66;5097402;28;20028;-87
2021/06/29 03:19:55;;;;;;;0.28;0.28;;;;;;;21.11;69.97;101265.09;5098341;28;20119;-89
2021/06/29 03:22:22;;;;;;;1.58;1.30;;;;;;;21.20;69.65;101262.81;5097137;28;20028;-88
2021/06/29 03:24:49;;;;;;;0.17;0.17;;;;;;;21.22;69.47;101260.91;5096970;28;20020;-87
2021/06/29 03:27:18;;;;;;;0.40;0.40;;;;;;;21.30;69.20;101264.03;5096176;28;20115;-87
2021/06/29 03:29:46;;;;;;;0.10;0.10;;;;;;;21.31;69.19;101263.94;5095566;28;20089;-89
2021/06/29 03:32:14;;;;;;;0.90;0.90;;;;;;;21.37;69.07;101264.53;5097282;28;20032;-87
2021/06/29 03:34:41;;;;;;;0.10;0.10;;;;;;;21.38;69.39;101258.19;5095689;28;20489;-87
2021/06/29 03:37:08;;;;;;;0.30;0.20;;;;;;;21.41;68.93;101250.78;5097210;28;20107;-87
2021/06/29 03:39:34;;;;;;;0.00;0.00;;;;;;;21.46;69.02;101255.91;5097126;28;20028;-89
2021/06/29 03:42:02;;;;;;;1.80;0.75;;;;;;;21.47;68.92;101255.81;5095012;28;20055;-88
2021/06/29 03:44:29;;;;;;;0.20;0.20;;;;;;;21.43;69.17;101256.06;5096478;28;20376;-87
2021/06/29 03:46:56;;;;;;;1.10;0.93;;;;;;;21.48;68.79;101256.66;5096979;28;20042;-89
2021/06/29 03:49:22;;;;;;;1.83;1.73;;;;;;;21.53;68.71;101262.66;5096951;28;20054;-88
2021/06/29 03:51:50;;;;;;;0.10;0.10;;;;;;;21.55;68.56;101252.66;5097046;28;20036;-86
2021/06/29 03:54:16;;;;;;;0.20;0.20;;;;;;;21.56;68.77;101248.16;5096917;28;20059;-86
2021/06/29 03:56:42;;;;;;;1.00;0.32;;;;;;;21.58;68.82;101248.94;5096439;28;20028;-88
2021/06/29 03:59:09;;;;;;;0.30;0.30;;;;;;;21.59;68.45;101242.59;5096892;28;20030;-86
2021/06/29 04:01:37;;;;;;;0.85;0.85;;;;;;;21.60;68.53;101239.78;5096951;28;20070;-87
2021/06/29 04:04:04;;;;;;;0.65;0.65;;;;;;;21.62;68.50;101240.56;5096675;28;20023;-89
2021/06/29 04:06:35;;;;;;;0.10;0.10;;;;;;;21.67;68.47;101236.72;5096485;28;20024;-87
2021/06/29 04:09:04;;;;;;;0.10;0.10;;;;;;;21.60;68.49;101239.78;5096516;28;20043;-89
2021/06/29 04:11:30;;;;;;;0.90;0.80;;;;;;;21.60;68.49;101242.47;5095814;28;20114;-87
2021/06/29 04:13:58;;;;;;;0.55;0.55;;;;;;;21.59;68.55;101256.91;5096095;28;20349;-88
2021/06/29 04:16:24;;;;;;;0.15;0.15;;;;;;;21.60;68.66;101249.72;5095404;28;20035;-86
2021/06/29 04:18:51;;;;;;;0.35;0.35;;;;;;;21.62;68.62;101248.66;5096493;28;20030;-88
2021/06/29 04:21:17;;;;;;;0.75;0.75;;;;;;;21.65;68.58;101253.84;5096251;28;20028;-88
2021/06/29 04:23:44;;;;;;;0.32;0.32;;;;;;;21.67;68.58;101240.31;5095935;28;20078;-88
2021/06/29 04:26:13;;;;;;;1.45;0.47;;;;;;;21.71;68.46;101251.75;5096315;28;20449;-87
2021/06/29 04:28:40;;;;;;;0.17;0.17;;;;;;;21.71;68.35;101252.63;5095478;28;20459;-89
2021/06/29 04:31:07;;;;;;;0.35;0.35;;;;;;;21.73;68.29;101257.94;5095715;28;20091;-87
2021/06/29 04:33:33;;;;;;;0.20;0.20;;;;;;;21.76;68.42;101255.06;5096120;28;20055;-87
2021/06/29 04:35:59;;;;;;;0.10;0.10;;;;;;;21.76;68.51;101260.44;5095347;28;20417;-88
2021/06/29 04:38:25;;;;;;;1.80;0.90;;;;;;;21.78;68.51;101258.50;5096187;28;20452;-88
2021/06/29 04:40:52;;;;;;;0.80;0.80;;;;;;;21.80;68.37;101262.00;5095336;28;20020;-88
2021/06/29 04:43:18;;;;;;;0.57;0.57;;;;;;;21.77;68.34;101257.66;5096104;28;20036;-89
2021/06/29 04:45:45;;;;;;;0.77;0.77;;;;;;;21.80;68.49;101262.00;5096068;28;20039;-88
2021/06/29 04:48:12;;;;;;;0.50;0.50;;;;;;;21.81;68.22;101263.72;5095748;28;20463;-87
2021/06/29 04:50:39;;;;;;;0.10;0.10;;;;;;;21.83;68.21;101267.19;5109447;22;20032;-84
2021/06/29 04:53:05;;;;;;;0.00;0.00;;;;;;;21.81;68.24;101263.72;5094831;28;20032;-84
2021/06/29 04:55:33;;;;;;;0.60;0.45;;;;;;;21.77;68.22;101267.56;5094669;28;20031;-84
2021/06/29 04:58:00;;;;;;;0.40;0.40;;;;;;;21.81;68.33;101269.13;5094952;28;20031;-84
2021/06/29 05:00:26;;;;;;;1.35;1.35;;;;;;;21.83;67.96;101261.78;5094330;28;20078;-85
2021/06/29 05:02:52;;;;;;;1.95;1.65;;;;;;;21.79;68.32;101257.56;5094267;28;20472;-85
2021/06/29 05:05:20;;;;;;;0.77;0.77;;;;;;;21.75;68.31;101259.56;5094707;28;20028;-84
2021/06/29 05:07:48;;;;;;;0.30;0.30;;;;;;;21.78;68.24;101275.56;5094428;28;20071;-85
2021/06/29 05:10:14;;;;;;;5.80;0.60;;;;;;;21.75;68.17;101285.69;5094247;28;20089;-84
2021/06/29 05:12:41;;;;;;;0.35;0.35;;;;;;;21.74;68.36;101271.31;5093914;28;20036;-86
2021/06/29 05:15:08;;;;;;;1.20;1.17;;;;;;;21.72;68.34;101270.56;5094268;28;20467;-84
2021/06/29 05:17:35;;;;;;;3.15;1.70;;;;;;;21.66;68.51;101270.94;5094440;28;20076;-84
2021/06/29 05:20:03;;;;;;;2.03;1.85;;;;;;;21.60;68.50;101266.75;5094452;28;20035;-85
2021/06/29 05:22:29;;;;;;;1.23;1.13;;;;;;;21.73;68.40;101268.72;5093562;28;20093;-85
2021/06/29 05:24:55;;;;;;;2.88;1.30;;;;;;;21.70;68.49;101261.69;5094113;28;20506;-86
2021/06/29 05:27:22;;;;;;;0.52;0.52;;;;;;;21.54;69.00;101271.63;5093866;28;20118;-86
2021/06/29 05:29:48;;;;;;;0.57;0.57;;;;;;;21.73;68.51;101271.41;5094302;28;20036;-84
2021/06/29 05:32:14;;;;;;;2.15;1.95;;;;;;;21.71;68.63;101270.63;5094108;28;20117;-83
2021/06/29 05:34:40;;;;;;;0.73;0.73;;;;;;;21.77;68.36;101268.44;5093810;28;20412;-83
2021/06/29 05:37:07;;;;;;;1.75;1.38;;;;;;;21.67;68.75;101275.38;5094031;28;20383;-83
2021/06/29 05:39:33;;;;;;;1.00;1.00;;;;;;;21.80;68.46;101280.88;5093714;28;20131;-83
2021/06/29 05:41:59;;;;;;;2.15;2.05;;;;;;;21.75;68.67;101285.69;5093410;28;20039;-83
2021/06/29 05:44:25;;;;;;;0.20;0.20;;;;;;;21.76;68.60;101299.06;5093712;28;20341;-84
2021/06/29 05:46:52;;;;;;;1.67;1.15;;;;;;;21.71;68.73;101300.28;5094100;28;20063;-85
2021/06/29 05:49:19;;;;;;;3.92;1.70;;;;;;;21.69;68.66;101297.69;5094177;28;20035;-86
2021/06/29 05:51:47;;;;;;;3.42;2.20;;;;;;;21.71;68.45;101295.78;5093978;28;20075;-85
2021/06/29 05:54:13;;;;;;;0.65;0.65;;;;;;;21.64;68.86;101289.88;5093827;28;20111;-87
2021/06/29 05:56:41;;;;;;;1.02;1.02;;;;;;;21.61;68.81;101298.16;5093955;28;20060;-87
2021/06/29 05:59:08;;;;;;;1.17;1.17;;;;;;;21.60;68.81;101298.25;5093888;28;20020;-86
2021/06/29 06:01:34;;;;;;;1.38;1.33;;;;;;;21.61;68.72;101298.16;5093190;28;20031;-87
2021/06/29 06:04:00;;;;;;;2.30;1.98;;;;;;;21.64;68.62;101297.09;5093721;28;20136;-83
2021/06/29 06:06:27;;;;;;;1.35;1.35;;;;;;;21.61;68.51;101294.59;5093515;28;20036;-86
2021/06/29 06:08:53;;;;;;;4.25;2.45;;;;;;;21.55;68.54;101295.78;5093601;28;20025;-83
2021/06/29 06:11:19;;;;;;;0.43;0.43;;;;;;;21.61;68.58;101306.25;5093190;28;20040;-83
2021/06/29 06:13:46;;;;;;;2.28;2.08;;;;;;;21.65;68.47;101307.78;5093786;28;20036;-83
2021/06/29 06:16:12;;;;;;;0.10;0.10;;;;;;;21.57;68.68;101306.50;5093419;28;20449;-84
2021/06/29 06:18:39;;;;;;;1.08;1.08;;;;;;;21.58;68.88;101306.44;5094020;28;20111;-82
2021/06/29 06:21:05;;;;;;;0.40;0.40;;;;;;;21.60;68.89;101311.72;5111078;22;20040;-88
2021/06/29 06:23:33;;;;;;;1.02;1.02;;;;;;;21.52;68.94;101312.16;5093247;28;20038;-87
2021/06/29 06:25:59;;;;;;;2.08;1.75;;;;;;;21.54;68.92;101304.81;5093982;28;20378;-87
2021/06/29 06:28:25;;;;;;;1.25;1.25;;;;;;;21.52;68.94;101306.78;5094007;28;20032;-87
2021/06/29 06:30:52;;;;;;;2.15;1.38;;;;;;;21.56;68.67;101307.47;5084531;28;20040;-86
2021/06/29 06:33:19;;;;;;;0.25;0.25;;;;;;;21.56;68.54;101311.03;5073613;28;20483;-86
2021/06/29 06:35:45;;;;;;;0.10;0.10;;;;;;;21.54;68.92;101299.44;5076648;28;20032;-86
2021/06/29 06:38:12;;;;;;;0.20;0.20;;;;;;;21.57;68.61;101299.31;5077572;28;20467;-86
2021/06/29 06:40:38;;;;;;;2.08;1.38;;;;;;;21.35;69.76;101305.06;5077265;28;20036;-87
2021/06/29 06:43:04;;;;;;;3.10;0.88;;;;;;;21.48;69.11;101295.28;5078071;28;20028;-86
2021/06/29 06:45:30;;;;;;;2.42;0.60;;;;;;;21.48;69.09;101299.78;5077186;28;20024;-86
2021/06/29 06:47:56;;;;;;;7.22;1.95;;;;;;;21.45;69.54;101298.16;5077068;28;20028;-86
2021/06/29 06:50:23;;;;;;;1.17;1.08;;;;;;;21.47;69.07;101300.75;5077538;28;20036;-85
2021/06/29 06:52:53;;;;;;;1.08;1.08;;;;;;;21.44;69.43;101299.09;5077154;28;20032;-85
2021/06/29 06:55:24;;;;;;;1.10;1.10;;;;;;;21.42;69.51;101305.53;5076578;28;20107;-85
2021/06/29 06:57:54;;;;;;;1.13;0.98;;;;;;;21.43;69.88;101296.50;5074530;28;20066;-85
2021/06/29 07:00:22;;;;;;;1.33;1.33;;;;;;;21.41;69.74;101298.41;5055628;28;20033;-86
2021/06/29 07:02:49;;;;;;;0.95;0.95;;;;;;;21.40;69.45;101302.94;5065681;28;20021;-84
2021/06/29 07:05:15;;;;;;;0.45;0.45;;;;;;;21.40;69.99;101294.88;5066914;28;20024;-84
2021/06/29 07:07:43;;;;;;;0.98;0.90;;;;;;;21.19;70.89;101299.66;5064147;28;20056;-85
2021/06/29 07:10:10;;;;;;;1.40;0.88;;;;;;;21.33;70.39;101288.97;5067610;28;20032;-84
2021/06/29 07:12:36;;;;;;;1.88;1.75;;;;;;;21.39;69.83;101293.13;5065461;28;20029;-84
2021/06/29 07:15:03;;;;;;;3.03;2.17;;;;;;;21.42;70.10;101297.47;5064697;28;20430;-82
2021/06/29 07:17:29;;;;;;;0.10;0.10;;;;;;;21.46;70.08;101301.75;5066289;28;20027;-84
2021/06/29 07:19:55;;;;;;;0.73;0.73;;;;;;;21.44;70.62;101300.94;5061921;28;20582;-84
2021/06/29 07:22:22;;;;;;;0.40;0.40;;;;;;;21.54;70.10;101309.38;5073284;28;20090;-82
2021/06/29 07:24:48;;;;;;;3.35;1.88;;;;;;;21.49;70.25;101307.78;5075210;28;20028;-83
2021/06/29 07:27:14;;;;;;;1.38;1.38;;;;;;;21.55;69.96;101300.31;5073637;28;20028;-86
2021/06/29 07:29:42;;;;;;;0.88;0.88;;;;;;;21.53;70.19;101297.69;5061616;28;20071;-84
2021/06/29 07:32:08;;;;;;;2.83;1.10;;;;;;;21.57;70.36;101302.00;5069994;28;20036;-85
2021/06/29 07:34:35;;;;;;;0.57;0.57;;;;;;;21.65;70.15;101297.00;5067578;28;20021;-84
2021/06/29 07:37:03;;;;;;;0.70;0.70;;;;;;;21.75;69.99;101296.47;5072471;28;20028;-85
2021/06/29 07:39:29;;;;;;;0.20;0.20;;;;;;;21.82;69.74;101295.16;5075137;28;20029;-85
2021/06/29 07:41:55;;;;;;;0.82;0.80;;;;;;;21.94;69.65;101296.22;5074526;28;20033;-83
2021/06/29 07:44:22;;;;;;;0.50;0.50;;;;;;;21.96;69.64;101291.59;5075146;28;20460;-84
2021/06/29 07:46:48;;;;;;;3.40;1.70;;;;;;;22.07;69.70;101301.72;5074562;28;20025;-86
2021/06/29 07:49:15;;;;;;;3.45;1.30;;;;;;;22.12;69.44;101300.50;5074947;28;20043;-85
2021/06/29 07:51:42;;;;;;;2.97;1.88;;;;;;;22.17;69.27;101300.22;5074963;28;20372;-85
2021/06/29 07:54:09;;;;;;;1.13;1.13;;;;;;;22.02;68.97;101304.72;5074750;28;20036;-86
2021/06/29 07:56:37;;;;;;;0.43;0.43;;;;;;;22.10;69.38;101301.53;5076153;28;20035;-86
2021/06/29 07:59:04;;;;;;;0.13;0.13;;;;;;;22.12;69.24;101296.94;5074017;28;20037;-86
2021/06/29 08:01:31;;;;;;;0.65;0.65;;;;;;;22.11;69.36;101292.50;5073758;28;20096;-87
2021/06/29 08:03:57;;;;;;;2.00;1.90;;;;;;;22.05;69.41;101295.56;5074871;28;20028;-87
2021/06/29 08:06:23;;;;;;;1.17;1.17;;;;;;;22.11;69.49;101292.50;5067023;28;20041;-82
2021/06/29 08:08:50;;;;;;;0.40;0.40;;;;;;;22.23;69.48;101289.03;5061699;28;20019;-88
2021/06/29 08:11:16;;;;;;;1.80;1.70;;;;;;;22.33;69.22;101291.16;5053944;28;20175;-86
2021/06/29 08:13:42;;;;;;;1.08;1.08;;;;;;;22.42;69.27;101291.47;5054139;28;20037;-86
2021/06/29 08:16:11;;;;;;;1.05;1.05;;;;;;;22.34;69.38;101290.19;5054006;28;20199;-87
2021/06/29 08:18:38;;;;;;;2.63;1.10;;;;;;;22.43;69.29;101298.63;5058494;28;20025;-87
2021/06/29 08:21:06;;;;;;;1.58;1.48;;;;;;;22.54;68.62;101289.84;5073645;28;20032;-88
2021/06/29 08:23:33;;;;;;;1.10;1.10;;;;;;;22.52;68.35;101294.47;5073959;28;20037;-87
2021/06/29 08:25:59;;;;;;;4.45;1.60;;;;;;;22.48;68.33;101297.44;5074091;28;20028;-88
2021/06/29 08:28:26;;;;;;;1.27;1.27;;;;;;;22.62;67.99;101290.19;5072277;28;20059;-86
2021/06/29 08:30:53;;;;;;;2.70;2.50;;;;;;;22.70;68.53;101291.56;5074409;28;20447;-86
2021/06/29 08:33:22;;;;;;;0.88;0.88;;;;;;;22.60;68.44;101300.25;5073883;28;20036;-86
2021/06/29 08:35:49;;;;;;;2.92;2.30;;;;;;;22.65;67.85;101299.09;5070589;28;20473;-87
2021/06/29 08:38:17;;;;;;;2.25;2.15;;;;;;;22.67;67.78;101295.31;5053617;28;20021;-85
2021/06/29 08:40:44;;;;;;;1.70;1.60;;;;;;;22.76;68.13;101293.84;5053841;28;20040;-86
2021/06/29 08:43:12;;;;;;;1.58;1.48;;;;;;;22.90;67.43;101280.34;5054373;28;20021;-88
2021/06/29 08:45:40;;;;;;;1.50;1.45;;;;;;;22.89;67.41;101275.00;5053752;28;20040;-88
2021/06/29 08:48:08;;;;;;;1.05;1.05;;;;;;;23.07;67.35;101276.50;5054244;28;20396;-87
2021/06/29 08:50:35;;;;;;;0.40;0.40;;;;;;;23.08;66.80;101277.38;5054452;28;20029;-87
2021/06/29 08:53:04;;;;;;;1.20;1.20;;;;;;;23.20;66.44;101287.44;5054314;28;20040;-87
2021/06/29 08:55:37;;;;;;;0.90;0.90;;;;;;;23.35;66.34;101290.06;5053888;28;20036;-87
2021/06/29 08:58:04;;;;;;;2.03;1.27;;;;;;;23.46;66.82;101286.63;5053176;28;20491;-88
2021/06/29 09:00:31;;;;;;;1.23;1.23;;;;;;;23.57;66.32;101290.31;5053867;28;20437;-89
2021/06/29 09:02:57;;;;;;;0.63;0.63;;;;;;;23.62;65.64;101286.47;5053677;28;20484;-88
2021/06/29 09:05:28;;;;;;;0.82;0.82;;;;;;;23.84;65.02;101285.84;5053905;28;20087;-86
2021/06/29 09:08:06;;;;;;;0.63;0.63;;;;;;;23.83;63.54;101276.88;5051638;28;20025;-88
2021/06/29 09:10:34;;;;;;;0.95;0.90;;;;;;;23.84;64.63;101283.13;5052919;28;20029;-85
2021/06/29 09:13:02;;;;;;;0.95;0.95;;;;;;;23.88;64.32;101282.81;5053602;28;20068;-88
2021/06/29 09:15:48;;;;;;;0.25;0.25;;;;;;;24.05;64.27;101288.91;5062534;28;20032;-87
2021/06/29 09:18:21;;;;;;;0.55;0.55;;;;;;;24.11;63.33;101282.22;5062003;28;20117;-87
2021/06/29 09:26:24;;;;;;;0.32;0.32;;;;;;;24.32;63.48;101290.66;5089387;28;20413;-88
2021/06/29 09:29:00;;;;;;;2.65;0.73;;;;;;;24.41;62.42;101283.72;5070599;28;20035;-88
2021/06/29 09:31:29;;;;;;;0.95;0.95;;;;;;;24.51;61.19;101279.38;5057217;28;20025;-88
2021/06/29 09:34:00;;;;;;;0.43;0.43;;;;;;;24.73;60.81;101276.00;5050559;28;20120;-88
2021/06/29 09:36:30;;;;;;;0.10;0.10;;;;;;;24.91;61.22;101271.09;5049846;28;20033;-89
2021/06/29 09:39:01;;;;;;;1.60;1.50;;;;;;;24.94;60.25;101273.53;5031933;28;20033;-89
2021/06/29 09:41:30;;;;;;;2.30;0.50;;;;;;;25.03;60.35;101274.72;5050082;28;20036;-89
2021/06/29 09:44:05;;;;;;;0.40;0.40;;;;;;;25.13;60.08;101278.44;5050104;28;20358;-89
2021/06/29 09:46:32;;;;;;;0.28;0.28;;;;;;;25.06;59.18;101277.22;5050851;28;20033;-90
2021/06/29 09:49:06;;;;;;;0.30;0.30;;;;;;;25.18;59.75;101269.97;5050571;28;20017;-90
2021/06/29 09:51:34;;;;;;;0.30;0.30;;;;;;;25.22;58.98;101279.59;5047134;28;20033;-90
2021/06/29 09:54:03;;;;;;;0.52;0.52;;;;;;;25.14;59.08;101288.31;5049289;28;20026;-90
2021/06/29 09:56:38;;;;;;;0.47;0.47;;;;;;;25.28;58.66;101283.72;5049869;28;20032;-87
2021/06/29 09:59:11;;;;;;;0.57;0.57;;;;;;;25.30;57.61;101288.03;5049761;28;20541;-90
2021/06/29 10:01:37;;;;;;;0.52;0.52;;;;;;;25.32;58.36;101288.81;5043668;28;20093;-88
2021/06/29 10:04:04;;;;;;;0.25;0.25;;;;;;;25.36;58.63;101286.72;5050657;28;20035;-87
2021/06/29 10:06:33;;;;;;;0.10;0.10;;;;;;;25.35;57.85;101287.69;5048250;28;20044;-89
2021/06/29 10:11:51;;;;;;;1.65;0.60;;;;;;;24.93;58.29;101300.78;5044192;28;20468;-89
2021/06/29 10:14:18;;;;;;;0.30;0.30;;;;;;;24.95;57.54;101305.09;5039240;28;20365;-88
2021/06/29 10:16:48;;;;;;;0.20;0.20;;;;;;;24.85;58.08;101299.50;5040747;28;20037;-88
2021/06/29 10:19:26;;;;;;;0.28;0.28;;;;;;;24.81;57.59;101303.41;5039501;28;20108;-87
2021/06/29 10:21:56;;;;;;;2.75;2.47;;;;;;;24.67;58.53;101298.13;5041127;28;20033;-88
2021/06/29 10:24:25;;;;;;;0.75;0.75;;;;;;;24.37;58.57;101315.56;5037883;28;20038;-88
2021/06/29 10:26:56;;;;;;;0.50;0.50;;;;;;;24.39;58.98;101313.63;5039213;28;20512;-87
2021/06/29 10:29:24;;;;;;;0.40;0.40;;;;;;;24.30;58.98;101314.25;5038282;28;20025;-86
2021/06/29 10:31:53;;;;;;;1.13;1.13;;;;;;;24.30;58.79;101307.03;5038538;28;20022;-87
2021/06/29 10:34:20;;;;;;;0.60;0.60;;;;;;;24.50;58.70;101311.00;5034994;28;20034;-85
2021/06/29 10:36:51;;;;;;;0.32;0.32;;;;;;;24.14;57.97;101311.75;5033554;28;20025;-83
2021/06/29 10:39:21;;;;;;;2.70;1.83;;;;;;;23.88;59.01;101304.47;5039071;28;20030;-84
2021/06/29 10:41:52;;;;;;;0.28;0.28;;;;;;;24.11;59.28;101301.16;5031630;28;20021;-84
2021/06/29 10:44:21;;;;;;;0.60;0.60;;;;;;;24.11;59.45;101304.72;5034514;28;20045;-82
2021/06/29 10:46:50;;;;;;;0.32;0.32;;;;;;;23.99;59.04;101301.06;5030075;28;20064;-82
2021/06/29 10:49:38;;;;;;;0.50;0.50;;;;;;;23.98;59.06;101301.16;5030099;28;20030;-82
2021/06/29 10:52:26;;;;;;;0.75;0.75;;;;;;;23.96;59.40;101306.66;5030050;28;20028;-82
2021/06/29 10:55:28;;;;;;;1.13;1.02;;;;;;;23.99;59.23;101300.16;5030517;28;20481;-82
2021/06/29 10:57:57;;;;;;;0.82;0.52;;;;;;;23.80;59.88;101305.97;5029316;28;20124;-84
2021/06/29 11:03:10;;;;;;;0.55;0.55;;;;;;;23.78;60.00;101314.19;5073155;28;20457;-81
2021/06/29 11:05:40;;;;;;;0.52;0.52;;;;;;;23.55;59.83;101313.94;5067829;28;20029;-82
2021/06/29 11:08:23;;;;;;;0.93;0.93;;;;;;;23.63;60.21;101297.16;5059563;28;20025;-83
2021/06/29 11:10:51;;;;;;;2.28;1.02;;;;;;;23.64;59.70;101306.16;5059558;28;20132;-83
2021/06/29 11:13:38;;;;;;;1.27;0.57;;;;;;;23.50;60.05;101307.97;5057694;28;20402;-83
2021/06/29 11:16:04;;;;;;;0.50;0.50;;;;;;;23.63;60.75;101309.81;5058579;28;20025;-84
2021/06/29 11:24:40;;;;;;;2.50;1.45;;;;;;;23.92;60.17;101301.59;5130741;27;20451;-84
2021/06/29 11:27:07;;;;;;;2.60;1.48;;;;;;;23.84;59.83;101294.84;5110783;28;20024;-84
2021/06/29 11:29:41;;;;;;;1.48;1.38;;;;;;;23.89;59.13;101297.22;5113164;28;20028;-92
2021/06/29 11:35:35;;;;;;;1.25;0.90;;;;;;;24.11;59.18;101291.19;5090645;27;20177;-90
2021/06/29 11:38:08;;;;;;;0.43;0.43;;;;;;;24.18;58.80;101288.94;5089463;28;20054;-91
2021/06/29 11:40:36;;;;;;;0.15;0.15;;;;;;;24.36;58.08;101282.22;5085475;28;20020;-90
2021/06/29 11:43:08;;;;;;;0.25;0.25;;;;;;;24.55;57.05;101281.75;5072808;28;20032;-84
2021/06/29 11:45:34;;;;;;;1.55;1.45;;;;;;;24.78;57.31;101273.81;5075987;28;20021;-84
2021/06/29 11:48:00;;;;;;;0.43;0.43;;;;;;;24.89;55.57;101272.19;5072932;28;20095;-84